Time;durP1;ratioP1;P1;durP2;ratioP2;P2;SDS_P1;SDS_P2;PMS_P1;PMS_P2;Temp;Humidity;BMP_temperature;BMP_pressure;BME280_temperature;BME280_humidity;BME280_pressure;Samples;Min_cycle;Max_cycle;Signal;HPM_P1;HPM_P2
2021/06/10 00:00:36;;;;;;;0.10;0.10;;;;;;;10.53;100.00;93582.63;2088353;28;20021;-90
2021/06/10 00:01:36;;;;;;;0.20;0.20;;;;;;;10.50;100.00;93574.66;2094077;28;20067;-91
2021/06/10 00:02:37;;;;;;;0.63;0.20;;;;;;;10.51;100.00;93576.16;2093780;28;20017;-90
2021/06/10 00:03:38;;;;;;;0.20;0.20;;;;;;;10.52;100.00;93570.41;2097009;28;20893;-89
2021/06/10 00:04:38;;;;;;;0.20;0.20;;;;;;;10.51;100.00;93576.94;2094799;28;20086;-91
2021/06/10 00:05:39;;;;;;;0.30;0.20;;;;;;;10.51;100.00;93578.84;2087460;28;20045;-90
2021/06/10 00:06:40;;;;;;;0.10;0.10;;;;;;;10.46;100.00;93580.06;2094246;28;20075;-89
2021/06/10 00:07:40;;;;;;;0.15;0.15;;;;;;;10.46;100.00;93576.63;2096293;28;20390;-91
2021/06/10 00:08:41;;;;;;;0.10;0.10;;;;;;;10.41;100.00;93580.50;2097337;28;20032;-89
2021/06/10 00:09:43;;;;;;;0.10;0.10;;;;;;;10.43;100.00;93572.84;2105729;28;20034;-90
2021/06/10 00:10:46;;;;;;;0.20;0.20;;;;;;;10.43;100.00;93574.75;2114301;28;20020;-90
2021/06/10 00:11:46;;;;;;;0.20;0.20;;;;;;;10.38;100.00;93575.97;2106016;28;20023;-90
2021/06/10 00:12:48;;;;;;;0.20;0.20;;;;;;;10.38;100.00;93578.63;2096477;28;20489;-91
2021/06/10 00:13:49;;;;;;;0.20;0.20;;;;;;;10.40;100.00;93580.91;2097645;28;20501;-91
2021/06/10 00:14:50;;;;;;;0.40;0.20;;;;;;;10.36;100.00;93572.94;2096089;28;20028;-90
2021/06/10 00:15:51;;;;;;;0.13;0.13;;;;;;;10.35;100.00;93576.75;2105530;28;20040;-89
2021/06/10 00:16:52;;;;;;;0.22;0.13;;;;;;;10.31;100.00;93576.03;2097140;28;20074;-92
2021/06/10 00:17:52;;;;;;;0.20;0.20;;;;;;;10.30;100.00;93571.88;2105764;28;20027;-90
2021/06/10 00:18:56;;;;;;;0.20;0.20;;;;;;;10.30;100.00;93579.88;2105722;28;20287;-90
2021/06/10 00:19:58;;;;;;;0.20;0.20;;;;;;;10.28;100.00;93582.97;2105810;28;20035;-89
2021/06/10 00:20:59;;;;;;;0.25;0.10;;;;;;;10.29;100.00;93586.41;2105888;28;20032;-91
2021/06/10 00:22:00;;;;;;;0.15;0.15;;;;;;;10.25;100.00;93581.09;2105691;28;20158;-91
2021/06/10 00:23:02;;;;;;;0.10;0.10;;;;;;;10.23;100.00;93585.31;2114162;28;20523;-88
2021/06/10 00:24:03;;;;;;;0.10;0.10;;;;;;;10.20;100.00;93586.09;2100093;28;20463;-91
2021/06/10 00:25:06;;;;;;;0.20;0.20;;;;;;;10.20;100.00;93578.84;2085710;28;20021;-89
2021/06/10 00:26:07;;;;;;;0.20;0.20;;;;;;;10.18;100.00;93581.16;2105823;28;20092;-90
2021/06/10 00:27:08;;;;;;;0.15;0.15;;;;;;;10.18;100.00;93588.41;2096884;28;20032;-90
2021/06/10 00:28:08;;;;;;;0.55;0.20;;;;;;;10.16;100.00;93583.47;2088984;28;20025;-90
2021/06/10 00:29:09;;;;;;;0.10;0.10;;;;;;;10.18;100.00;93583.06;2097300;28;20032;-89
2021/06/10 00:30:15;;;;;;;0.22;0.22;;;;;;;10.14;100.00;93583.13;2105860;28;20048;-89
2021/06/10 00:31:16;;;;;;;0.20;0.20;;;;;;;10.14;100.00;93583.13;2114355;28;20016;-89
2021/06/10 00:32:17;;;;;;;0.22;0.20;;;;;;;10.08;100.00;93582.03;2105526;28;20528;-90
2021/06/10 00:33:18;;;;;;;0.20;0.20;;;;;;;10.13;100.00;93580.84;2088843;28;20066;-89
2021/06/10 00:34:18;;;;;;;0.15;0.15;;;;;;;10.12;100.00;93579.34;2097171;28;20546;-89
2021/06/10 00:35:21;;;;;;;0.20;0.20;;;;;;;10.11;100.00;93580.50;2097351;28;20028;-90
2021/06/10 00:36:23;;;;;;;0.20;0.20;;;;;;;10.09;100.00;93586.22;2089485;28;20035;-90
2021/06/10 00:37:23;;;;;;;0.20;0.20;;;;;;;10.07;100.00;93591.22;2088823;28;20031;-90
2021/06/10 00:38:24;;;;;;;0.32;0.25;;;;;;;10.02;100.00;93591.66;2088896;28;20021;-90
2021/06/10 00:39:25;;;;;;;0.20;0.20;;;;;;;9.99;100.00;93585.19;2089143;28;20116;-91
2021/06/10 00:40:33;;;;;;;0.15;0.15;;;;;;;10.04;100.00;93584.00;2097838;28;20032;-91
2021/06/10 00:41:35;;;;;;;0.20;0.20;;;;;;;9.99;100.00;93595.13;2103979;28;20022;-90
2021/06/10 00:42:36;;;;;;;0.10;0.10;;;;;;;9.97;100.00;93589.44;2108651;28;20080;-90
2021/06/10 00:43:37;;;;;;;0.30;0.20;;;;;;;9.97;100.00;93587.53;2096914;28;20016;-90
2021/06/10 00:44:38;;;;;;;0.10;0.10;;;;;;;9.90;100.00;93587.59;2105488;28;20097;-90
2021/06/10 00:45:38;;;;;;;0.20;0.20;;;;;;;9.93;100.00;93588.72;2105671;28;20077;-91
2021/06/10 00:46:39;;;;;;;0.10;0.10;;;;;;;9.92;100.00;93598.66;2088946;28;20028;-90
2021/06/10 00:47:41;;;;;;;0.13;0.13;;;;;;;9.88;100.00;93594.47;2091484;28;20437;-90
2021/06/10 00:48:42;;;;;;;0.20;0.20;;;;;;;9.89;100.00;93591.44;2102634;28;20019;-89
2021/06/10 00:49:43;;;;;;;0.10;0.10;;;;;;;9.88;100.00;93591.81;2099562;28;20021;-90
2021/06/10 00:50:45;;;;;;;0.20;0.20;;;;;;;9.88;100.00;93587.25;2117149;27;20106;-89
2021/06/10 00:51:46;;;;;;;0.15;0.15;;;;;;;9.92;100.00;93584.53;2114011;28;20029;-90
2021/06/10 00:52:47;;;;;;;0.20;0.20;;;;;;;9.89;100.00;93588.00;2105623;28;20027;-91
2021/06/10 00:53:48;;;;;;;0.20;0.20;;;;;;;9.89;100.00;93588.75;2113946;28;20024;-90
2021/06/10 00:54:49;;;;;;;0.20;0.20;;;;;;;9.88;100.00;93592.59;2105540;28;20059;-90
2021/06/10 00:55:52;;;;;;;0.20;0.20;;;;;;;9.90;100.00;93590.28;2097327;28;20477;-89
2021/06/10 00:56:53;;;;;;;0.17;0.17;;;;;;;9.90;100.00;93600.94;2096788;28;20062;-90
2021/06/10 00:57:53;;;;;;;0.52;0.20;;;;;;;9.85;100.00;93593.38;2096852;28;20020;-89
2021/06/10 00:58:54;;;;;;;0.20;0.20;;;;;;;9.88;100.00;93595.25;2097339;28;20028;-91
2021/06/10 00:59:55;;;;;;;0.45;0.30;;;;;;;9.89;100.00;93596.00;2093521;28;20079;-89
2021/06/10 01:00:56;;;;;;;0.20;0.20;;;;;;;9.89;100.00;93594.09;2092408;28;20021;-90
2021/06/10 01:01:56;;;;;;;0.20;0.20;;;;;;;9.90;100.00;93598.28;2105524;28;20051;-90
2021/06/10 01:02:57;;;;;;;0.20;0.20;;;;;;;9.86;100.00;93600.22;2105257;28;20058;-89
2021/06/10 01:03:58;;;;;;;0.20;0.20;;;;;;;9.89;100.00;93602.09;2096807;28;20032;-90
2021/06/10 01:05:00;;;;;;;0.38;0.20;;;;;;;9.80;100.00;93597.25;2088600;28;20039;-90
2021/06/10 01:06:06;;;;;;;1.00;0.20;;;;;;;9.76;100.00;93601.88;2088003;28;20056;-90
2021/06/10 01:07:15;;;;;;;0.10;0.10;;;;;;;9.71;100.00;93596.97;2093672;28;20028;-91
2021/06/10 01:08:24;;;;;;;0.57;0.20;;;;;;;9.78;100.00;93596.13;2093232;28;20059;-90
2021/06/10 01:09:36;;;;;;;0.10;0.10;;;;;;;9.74;100.00;93595.41;2106245;28;20504;-89
2021/06/10 01:10:46;;;;;;;0.20;0.20;;;;;;;9.70;100.00;93602.69;2097894;28;20025;-90
2021/06/10 01:12:06;;;;;;;0.20;0.20;;;;;;;9.71;100.00;93607.66;2105523;28;20027;-90
2021/06/10 01:13:30;;;;;;;0.10;0.10;;;;;;;9.72;100.00;93595.06;2099755;28;20538;-91
2021/06/10 01:14:39;;;;;;;0.20;0.20;;;;;;;9.65;100.00;93598.53;2090311;28;20107;-90
2021/06/10 01:15:42;;;;;;;0.15;0.15;;;;;;;9.68;100.00;93594.34;2087063;28;20095;-91
2021/06/10 01:16:46;;;;;;;0.20;0.20;;;;;;;9.64;100.00;93594.38;2097642;28;20028;-90
2021/06/10 01:17:47;;;;;;;0.20;0.20;;;;;;;9.69;100.00;93598.50;2097155;28;20012;-89
2021/06/10 01:18:49;;;;;;;0.22;0.20;;;;;;;9.71;100.00;93591.63;2088715;28;20104;-90
2021/06/10 01:20:00;;;;;;;0.10;0.10;;;;;;;9.65;100.00;93574.53;2093139;28;20552;-91
2021/06/10 01:21:01;;;;;;;0.20;0.20;;;;;;;9.64;100.00;93589.03;2102237;28;20098;-89
2021/06/10 01:22:06;;;;;;;0.20;0.20;;;;;;;9.65;100.00;93582.53;2096746;28;20028;-89
2021/06/10 01:23:22;;;;;;;0.10;0.10;;;;;;;9.65;100.00;93589.78;2089954;28;20029;-91
2021/06/10 01:24:39;;;;;;;0.10;0.10;;;;;;;9.61;100.00;93587.16;2092390;28;20445;-90
2021/06/10 01:25:58;;;;;;;0.10;0.10;;;;;;;9.56;100.00;93592.91;2092721;28;20105;-89
2021/06/10 01:27:13;;;;;;;0.10;0.10;;;;;;;9.51;100.00;93583.44;2087789;28;20121;-90
2021/06/10 01:28:18;;;;;;;0.20;0.20;;;;;;;9.52;100.00;93584.94;2098108;28;20280;-90
2021/06/10 01:29:21;;;;;;;0.10;0.10;;;;;;;9.53;100.00;93583.81;2094563;28;20067;-91
2021/06/10 01:30:31;;;;;;;0.10;0.10;;;;;;;9.51;100.00;93586.09;2105221;28;20023;-89
2021/06/10 01:31:32;;;;;;;0.30;0.30;;;;;;;9.55;100.00;93584.16;2090027;28;20021;-88
2021/06/10 01:32:36;;;;;;;0.20;0.20;;;;;;;9.50;100.00;93581.16;2101686;28;20434;-90
2021/06/10 01:33:50;;;;;;;0.45;0.25;;;;;;;9.53;100.00;93578.47;2107870;28;20028;-90
2021/06/10 01:34:52;;;;;;;0.20;0.20;;;;;;;9.54;100.00;93579.22;2097798;28;20020;-90
2021/06/10 01:36:00;;;;;;;0.20;0.20;;;;;;;9.51;100.00;93575.44;2091308;28;20033;-90
2021/06/10 01:37:01;;;;;;;0.22;0.20;;;;;;;9.51;100.00;93582.69;2104937;28;20047;-90
2021/06/10 01:38:02;;;;;;;0.20;0.20;;;;;;;9.49;100.00;93579.66;2113479;28;20023;-91
2021/06/10 01:39:07;;;;;;;0.85;0.30;;;;;;;9.46;100.00;93580.44;2113122;28;20031;-91
2021/06/10 01:40:09;;;;;;;0.20;0.20;;;;;;;9.46;100.00;93581.19;2105086;28;20239;-89
2021/06/10 01:41:11;;;;;;;0.10;0.10;;;;;;;9.47;100.00;93588.03;2097272;28;20408;-89
2021/06/10 01:42:12;;;;;;;0.20;0.20;;;;;;;9.46;100.00;93577.78;2096489;28;20029;-90
2021/06/10 01:43:15;;;;;;;0.30;0.20;;;;;;;9.48;100.00;93576.25;2095821;28;20021;-89
2021/06/10 01:44:16;;;;;;;0.17;0.10;;;;;;;9.37;100.00;93575.59;2096094;28;20024;-89
2021/06/10 01:45:18;;;;;;;0.30;0.30;;;;;;;9.42;100.00;93587.72;2088624;28;20494;-89
2021/06/10 01:46:24;;;;;;;0.68;0.20;;;;;;;9.41;100.00;93576.31;2086730;28;20024;-90
2021/06/10 01:47:26;;;;;;;0.20;0.20;;;;;;;9.42;100.00;93571.72;2097496;28;20027;-89
2021/06/10 01:48:28;;;;;;;0.50;0.20;;;;;;;9.42;100.00;93564.47;2096032;28;20052;-89
2021/06/10 01:49:29;;;;;;;0.20;0.20;;;;;;;9.45;100.00;93571.69;2088182;28;20052;-90
2021/06/10 01:50:30;;;;;;;0.22;0.22;;;;;;;9.42;100.00;93564.47;2096674;28;20024;-89
2021/06/10 01:51:32;;;;;;;0.30;0.30;;;;;;;9.43;100.00;93571.31;2092562;28;20032;-90
2021/06/10 01:52:35;;;;;;;0.20;0.20;;;;;;;9.43;100.00;93567.88;2096801;28;20533;-89
2021/06/10 01:53:41;;;;;;;0.20;0.20;;;;;;;9.42;100.00;93564.47;2104834;28;20350;-89
2021/06/10 01:54:42;;;;;;;0.20;0.20;;;;;;;9.42;100.00;93566.38;2104247;28;20028;-90
2021/06/10 01:55:45;;;;;;;0.20;0.20;;;;;;;9.43;100.00;93562.56;2112876;28;20551;-90
2021/06/10 01:56:46;;;;;;;0.20;0.20;;;;;;;9.45;100.00;93569.03;2104314;28;20482;-90
2021/06/10 01:57:48;;;;;;;0.20;0.20;;;;;;;9.40;100.00;93552.69;2104608;28;20023;-89
2021/06/10 01:58:51;;;;;;;0.20;0.20;;;;;;;9.38;100.00;93566.41;2104017;28;20031;-90
2021/06/10 01:59:54;;;;;;;1.20;0.30;;;;;;;9.39;100.00;93565.25;2096292;28;20016;-90
2021/06/10 02:00:55;;;;;;;0.20;0.20;;;;;;;9.33;100.00;93559.59;2096548;28;20039;-90
2021/06/10 02:02:00;;;;;;;0.20;0.20;;;;;;;9.31;100.00;93566.50;2096299;28;20409;-91
2021/06/10 02:03:03;;;;;;;0.28;0.20;;;;;;;9.32;100.00;93557.34;2086287;28;20543;-89
2021/06/10 02:04:05;;;;;;;0.22;0.22;;;;;;;9.28;100.00;93557.38;2095920;28;20017;-90
2021/06/10 02:05:10;;;;;;;0.28;0.25;;;;;;;9.28;100.00;93552.03;2104649;28;20021;-90
2021/06/10 02:06:12;;;;;;;0.45;0.20;;;;;;;9.26;100.00;93554.34;2096684;28;20659;-89
2021/06/10 02:07:14;;;;;;;0.20;0.20;;;;;;;9.29;100.00;93558.88;2084468;28;20531;-91
2021/06/10 02:08:16;;;;;;;0.30;0.20;;;;;;;9.25;100.00;93557.41;2094907;28;20024;-89
2021/06/10 02:09:20;;;;;;;0.35;0.20;;;;;;;9.26;100.00;93558.91;2095894;28;20017;-89
2021/06/10 02:10:26;;;;;;;0.35;0.28;;;;;;;9.22;100.00;93552.84;2103837;28;20562;-90
2021/06/10 02:11:27;;;;;;;0.20;0.20;;;;;;;9.21;100.00;93554.75;2096717;28;20603;-90
2021/06/10 02:12:28;;;;;;;0.25;0.20;;;;;;;9.21;100.00;93551.34;2095916;28;20379;-89
2021/06/10 02:13:30;;;;;;;0.30;0.30;;;;;;;9.25;100.00;93546.72;2104494;28;20400;-90
2021/06/10 02:14:31;;;;;;;0.28;0.28;;;;;;;9.28;100.00;93546.69;2103961;28;20491;-91
2021/06/10 02:15:33;;;;;;;0.20;0.20;;;;;;;9.25;100.00;93557.41;2092550;28;20028;-91
2021/06/10 02:16:38;;;;;;;0.20;0.20;;;;;;;9.23;100.00;93557.06;2084784;28;20029;-90
2021/06/10 02:17:41;;;;;;;0.20;0.20;;;;;;;9.23;100.00;93552.47;2089658;28;20032;-89
2021/06/10 02:18:45;;;;;;;0.10;0.10;;;;;;;9.13;100.00;93552.56;2087811;28;20489;-90
2021/06/10 02:19:45;;;;;;;0.20;0.20;;;;;;;9.13;100.00;93549.88;2096540;28;20028;-89
2021/06/10 02:20:47;;;;;;;1.02;0.20;;;;;;;9.15;100.00;93547.59;2096190;28;20024;-88
2021/06/10 02:21:47;;;;;;;0.20;0.20;;;;;;;9.12;100.00;93551.03;2096231;28;20021;-89
2021/06/10 02:22:49;;;;;;;0.30;0.30;;;;;;;9.15;100.00;93550.25;2095827;28;20550;-90
2021/06/10 02:23:50;;;;;;;0.20;0.20;;;;;;;9.10;100.00;93553.38;2103880;28;20140;-90
2021/06/10 02:24:52;;;;;;;0.20;0.20;;;;;;;9.15;100.00;93550.25;2103075;28;20470;-87
2021/06/10 02:25:53;;;;;;;0.20;0.20;;;;;;;9.13;100.00;93550.66;2104766;28;20271;-89
2021/06/10 02:26:53;;;;;;;0.20;0.20;;;;;;;9.10;100.00;93548.03;2104622;28;20066;-89
2021/06/10 02:27:54;;;;;;;0.20;0.20;;;;;;;9.08;100.00;93546.50;2104424;28;20055;-89
2021/06/10 02:28:55;;;;;;;0.20;0.20;;;;;;;9.10;100.00;93548.03;2096207;28;20028;-88
2021/06/10 02:29:56;;;;;;;0.20;0.20;;;;;;;9.10;100.00;93550.69;2095899;28;20021;-88
2021/06/10 02:30:57;;;;;;;0.20;0.20;;;;;;;9.03;100.00;93549.59;2099125;28;20036;-88
2021/06/10 02:31:57;;;;;;;0.20;0.20;;;;;;;9.08;100.00;93546.50;2087979;28;20028;-89
2021/06/10 02:32:58;;;;;;;0.20;0.20;;;;;;;9.02;100.00;93550.75;2096298;28;20849;-89
2021/06/10 02:34:00;;;;;;;0.30;0.20;;;;;;;9.05;100.00;93559.88;2104433;28;20276;-89
2021/06/10 02:35:07;;;;;;;0.70;0.30;;;;;;;8.99;100.00;93556.84;2096320;28;20090;-88
2021/06/10 02:36:09;;;;;;;0.30;0.20;;;;;;;8.99;100.00;93551.53;2105157;28;20035;-89
2021/06/10 02:37:12;;;;;;;0.38;0.20;;;;;;;8.99;100.00;93556.84;2111989;28;20091;-88
2021/06/10 02:38:15;;;;;;;0.10;0.10;;;;;;;8.94;100.00;93556.53;2109365;28;20031;-90
2021/06/10 02:39:18;;;;;;;0.20;0.20;;;;;;;8.95;100.00;93558.78;2106896;28;20034;-89
2021/06/10 02:40:27;;;;;;;0.20;0.20;;;;;;;8.96;100.00;93556.91;2104590;28;20104;-89
2021/06/10 02:41:29;;;;;;;0.20;0.20;;;;;;;8.93;100.00;93558.44;2109325;28;20425;-89
2021/06/10 02:42:31;;;;;;;0.20;0.20;;;;;;;8.94;100.00;93559.97;2105864;28;20032;-89
2021/06/10 02:43:33;;;;;;;0.20;0.20;;;;;;;8.95;100.00;93556.13;2103529;28;20023;-88
2021/06/10 02:44:34;;;;;;;0.43;0.17;;;;;;;8.97;100.00;93553.84;2096083;28;20165;-89
2021/06/10 02:45:35;;;;;;;0.10;0.10;;;;;;;8.95;100.00;93555.38;2095530;28;20029;-89
2021/06/10 02:46:39;;;;;;;0.20;0.20;;;;;;;8.92;100.00;93561.53;2096323;28;20024;-89
2021/06/10 02:47:40;;;;;;;0.35;0.30;;;;;;;8.94;100.00;93557.28;2100339;28;20439;-88
2021/06/10 02:48:41;;;;;;;0.20;0.20;;;;;;;8.92;100.00;93554.28;2095087;28;20421;-87
2021/06/10 02:49:47;;;;;;;0.20;0.20;;;;;;;8.91;100.00;93560.75;2087896;28;20447;-89
2021/06/10 02:50:50;;;;;;;0.30;0.30;;;;;;;8.93;100.00;93568.34;2105192;28;20070;-89
2021/06/10 02:51:51;;;;;;;0.20;0.20;;;;;;;8.94;100.00;93565.28;2102980;28;20027;-91
2021/06/10 02:52:54;;;;;;;0.20;0.20;;;;;;;8.91;100.00;93570.66;2087070;28;20025;-89
2021/06/10 02:53:55;;;;;;;0.20;0.20;;;;;;;8.90;100.00;93569.88;2091853;28;20394;-89
2021/06/10 02:54:56;;;;;;;0.20;0.20;;;;;;;8.91;100.00;93566.09;2100972;28;20055;-89
2021/06/10 02:56:00;;;;;;;0.30;0.20;;;;;;;8.91;100.00;93563.44;2111385;28;20051;-88
2021/06/10 02:57:03;;;;;;;0.20;0.20;;;;;;;8.93;100.00;93565.69;2096560;28;20477;-89
2021/06/10 02:58:05;;;;;;;0.52;0.20;;;;;;;8.89;100.00;93571.03;2093159;28;20457;-90
2021/06/10 02:59:08;;;;;;;0.28;0.20;;;;;;;8.88;100.00;93561.53;2104625;28;20626;-89
2021/06/10 03:00:09;;;;;;;0.20;0.20;;;;;;;8.90;100.00;93561.13;2097169;28;20043;-88
2021/06/10 03:01:11;;;;;;;0.28;0.28;;;;;;;8.89;100.00;93560.38;2096556;28;20630;-90
2021/06/10 03:02:12;;;;;;;0.10;0.10;;;;;;;8.88;100.00;93555.44;2092883;28;20029;-89
2021/06/10 03:03:15;;;;;;;0.20;0.20;;;;;;;8.90;100.00;93561.13;2096960;28;20118;-89
2021/06/10 03:04:16;;;;;;;0.40;0.30;;;;;;;8.89;100.00;93555.06;2097609;28;20024;-90
2021/06/10 03:05:19;;;;;;;0.20;0.20;;;;;;;8.88;100.00;93558.88;2097678;28;20107;-88
2021/06/10 03:06:22;;;;;;;0.25;0.25;;;;;;;8.86;100.00;93552.41;2089672;28;20044;-90
2021/06/10 03:07:23;;;;;;;0.20;0.20;;;;;;;8.82;100.00;93563.09;2092830;28;20020;-90
2021/06/10 03:08:25;;;;;;;0.80;0.22;;;;;;;8.85;100.00;93556.22;2079866;28;20018;-87
2021/06/10 03:09:27;;;;;;;0.20;0.20;;;;;;;8.83;100.00;93559.31;2080679;28;20029;-91
2021/06/10 03:10:32;;;;;;;0.20;0.20;;;;;;;8.81;100.00;93556.25;2085740;28;20025;-89
2021/06/10 03:11:37;;;;;;;0.20;0.20;;;;;;;8.78;100.00;93551.69;2086181;28;20051;-90
2021/06/10 03:12:40;;;;;;;0.40;0.40;;;;;;;8.79;100.00;93559.31;2095038;28;20024;-88
2021/06/10 03:13:43;;;;;;;0.20;0.20;;;;;;;8.67;100.00;93557.13;2104613;28;20358;-89
2021/06/10 03:14:44;;;;;;;0.20;0.20;;;;;;;8.74;100.00;93565.06;2084393;28;20051;-89
2021/06/10 03:15:45;;;;;;;0.20;0.20;;;;;;;8.73;100.00;93555.53;2089254;28;20552;-90
2021/06/10 03:16:47;;;;;;;0.20;0.20;;;;;;;8.71;100.00;93563.19;2097381;28;20109;-90
2021/06/10 03:17:49;;;;;;;0.25;0.25;;;;;;;8.71;100.00;93555.19;2098375;28;20391;-89
2021/06/10 03:18:52;;;;;;;0.20;0.20;;;;;;;8.70;100.00;93568.91;2096418;28;20103;-91
2021/06/10 03:19:53;;;;;;;0.30;0.30;;;;;;;8.66;100.00;93554.88;2088563;28;20027;-88
2021/06/10 03:20:58;;;;;;;2.55;0.30;;;;;;;8.65;100.00;93564.75;2089474;28;20040;-90
2021/06/10 03:21:59;;;;;;;0.20;0.20;;;;;;;8.70;100.00;93561.69;2089636;28;20029;-89
2021/06/10 03:23:00;;;;;;;0.90;0.30;;;;;;;8.69;100.00;93560.16;2096590;28;20563;-89
2021/06/10 03:24:01;;;;;;;0.20;0.20;;;;;;;8.69;100.00;93559.38;2097816;28;20536;-88
2021/06/10 03:25:05;;;;;;;0.45;0.20;;;;;;;8.69;100.00;93556.72;2096208;28;20446;-89
2021/06/10 03:26:07;;;;;;;0.63;0.20;;;;;;;8.71;100.00;93562.44;2089035;28;20035;-90
2021/06/10 03:27:09;;;;;;;0.30;0.30;;;;;;;8.73;100.00;93563.53;2097621;28;20538;-88
2021/06/10 03:28:10;;;;;;;0.20;0.20;;;;;;;8.69;100.00;93570.84;2087251;28;20036;-89
2021/06/10 03:29:11;;;;;;;0.20;0.20;;;;;;;8.69;100.00;93570.03;2080229;28;20029;-91
2021/06/10 03:30:12;;;;;;;0.47;0.35;;;;;;;8.67;100.00;93567.78;2080984;28;20120;-92
2021/06/10 03:31:13;;;;;;;0.20;0.20;;;;;;;8.66;100.00;93566.28;2080686;28;20025;-89
2021/06/10 03:32:15;;;;;;;0.30;0.30;;;;;;;8.66;100.00;93568.19;2072854;28;20030;-89
2021/06/10 03:33:16;;;;;;;0.22;0.22;;;;;;;8.67;100.00;93561.69;2071475;28;20017;-88
2021/06/10 03:34:18;;;;;;;0.25;0.22;;;;;;;8.68;100.00;93565.88;2080674;28;20413;-89
2021/06/10 03:35:21;;;;;;;1.00;0.30;;;;;;;8.68;100.00;93563.22;2089118;28;20032;-89
2021/06/10 03:36:22;;;;;;;0.30;0.30;;;;;;;8.66;100.00;93562.84;2089526;28;20064;-90
2021/06/10 03:37:23;;;;;;;0.20;0.20;;;;;;;8.67;100.00;93561.69;2097286;28;20021;-89
2021/06/10 03:38:25;;;;;;;0.20;0.20;;;;;;;8.70;100.00;93566.25;2089446;28;20032;-89
2021/06/10 03:39:27;;;;;;;0.20;0.20;;;;;;;8.67;100.00;93562.47;2081496;28;20078;-91
2021/06/10 03:40:28;;;;;;;0.30;0.30;;;;;;;8.68;100.00;93553.31;2089690;28;20106;-90
2021/06/10 03:41:30;;;;;;;0.20;0.20;;;;;;;8.67;100.00;93562.47;2089363;28;20025;-90
2021/06/10 03:42:31;;;;;;;0.28;0.28;;;;;;;8.66;100.00;93552.19;2089081;28;20421;-89
2021/06/10 03:43:35;;;;;;;0.65;0.30;;;;;;;8.66;100.00;93563.63;2090030;28;20363;-89
2021/06/10 03:44:36;;;;;;;0.30;0.30;;;;;;;8.67;100.00;93554.47;2081245;28;20119;-90
2021/06/10 03:45:37;;;;;;;0.20;0.20;;;;;;;8.66;100.00;93560.19;2072906;28;20040;-89
2021/06/10 03:46:40;;;;;;;0.20;0.20;;;;;;;8.66;100.00;93555.63;2082605;28;20493;-92
2021/06/10 03:47:44;;;;;;;0.20;0.20;;;;;;;8.65;100.00;93561.31;2089548;28;20060;-90
2021/06/10 03:48:45;;;;;;;0.20;0.20;;;;;;;8.65;100.00;93562.09;2088917;28;20493;-90
2021/06/10 03:49:46;;;;;;;0.30;0.30;;;;;;;8.71;100.00;93557.09;2080317;28;20030;-90
2021/06/10 03:50:47;;;;;;;0.20;0.20;;;;;;;8.68;100.00;93558.63;2080865;28;20021;-89
2021/06/10 03:51:50;;;;;;;0.20;0.20;;;;;;;8.66;100.00;93560.94;2089400;28;20048;-88
2021/06/10 03:52:50;;;;;;;0.30;0.30;;;;;;;8.67;100.00;93554.47;2088353;28;20372;-89
2021/06/10 03:53:54;;;;;;;0.30;0.30;;;;;;;8.69;100.00;93564.72;2085650;28;20088;-90
2021/06/10 03:54:58;;;;;;;0.25;0.25;;;;;;;8.70;100.00;93566.25;2084991;28;20021;-89
2021/06/10 03:55:59;;;;;;;0.75;0.30;;;;;;;8.70;100.00;93566.25;2077686;28;20025;-90
2021/06/10 03:57:00;;;;;;;0.55;0.20;;;;;;;8.70;100.00;93560.94;2096750;28;20401;-89
2021/06/10 03:58:01;;;;;;;0.20;0.20;;;;;;;8.69;100.00;93564.72;2096698;28;20020;-89
2021/06/10 03:59:01;;;;;;;0.28;0.28;;;;;;;8.71;100.00;93567.75;2089123;28;20063;-92
2021/06/10 04:00:08;;;;;;;0.52;0.30;;;;;;;8.72;100.00;93562.03;2081770;28;20192;-89
2021/06/10 04:01:09;;;;;;;0.20;0.20;;;;;;;8.69;100.00;93559.38;2082114;28;20025;-89
2021/06/10 04:02:10;;;;;;;0.20;0.20;;;;;;;8.70;100.00;93560.94;2088983;28;20052;-91
2021/06/10 04:03:10;;;;;;;0.20;0.20;;;;;;;8.73;100.00;93563.53;2081553;28;20029;-90
2021/06/10 04:04:11;;;;;;;0.30;0.30;;;;;;;8.73;100.00;93560.88;2081264;28;20032;-89
2021/06/10 04:05:12;;;;;;;0.20;0.20;;;;;;;8.74;100.00;93557.09;2089167;28;20031;-89
2021/06/10 04:06:15;;;;;;;0.25;0.25;;;;;;;8.76;100.00;93559.34;2093133;28;20040;-90
2021/06/10 04:07:16;;;;;;;0.20;0.20;;;;;;;8.77;100.00;93552.84;2088977;28;20048;-90
2021/06/10 04:08:17;;;;;;;0.20;0.20;;;;;;;8.77;100.00;93558.19;2097228;28;20024;-89
2021/06/10 04:09:17;;;;;;;0.30;0.30;;;;;;;8.79;100.00;93547.91;2105539;28;20391;-88
2021/06/10 04:10:18;;;;;;;0.65;0.32;;;;;;;8.80;100.00;93554.75;2097224;28;20024;-89
2021/06/10 04:11:19;;;;;;;0.20;0.20;;;;;;;8.82;100.00;93552.44;2084410;28;20453;-89
2021/06/10 04:12:20;;;;;;;0.20;0.20;;;;;;;8.84;100.00;93550.16;2086435;28;20021;-90
2021/06/10 04:13:21;;;;;;;0.30;0.30;;;;;;;8.85;100.00;93550.91;2102508;28;20051;-89
2021/06/10 04:14:22;;;;;;;0.20;0.20;;;;;;;8.84;100.00;93550.16;2099078;28;20020;-91
2021/06/10 04:15:22;;;;;;;0.20;0.20;;;;;;;8.85;100.00;93554.31;2101540;28;20071;-89
2021/06/10 04:16:24;;;;;;;0.20;0.20;;;;;;;8.87;100.00;93554.69;2094406;28;20025;-88
2021/06/10 04:17:25;;;;;;;0.30;0.30;;;;;;;8.89;100.00;93556.97;2097721;28;20039;-90
2021/06/10 04:18:26;;;;;;;0.20;0.20;;;;;;;8.93;100.00;93552.38;2105576;28;20580;-91
2021/06/10 04:19:27;;;;;;;0.57;0.20;;;;;;;8.94;100.00;93545.88;2097163;28;20025;-89
2021/06/10 04:20:28;;;;;;;0.35;0.20;;;;;;;8.94;100.00;93554.63;2088874;28;20020;-89
2021/06/10 04:21:29;;;;;;;0.20;0.20;;;;;;;8.98;100.00;93549.25;2089007;28;20029;-89
2021/06/10 04:22:30;;;;;;;0.30;0.30;;;;;;;8.96;100.00;93549.66;2089140;28;20037;-89
2021/06/10 04:23:30;;;;;;;0.30;0.30;;;;;;;9.02;100.00;93556.09;2088917;28;20177;-91
2021/06/10 04:24:31;;;;;;;0.20;0.20;;;;;;;9.05;100.00;93555.31;2097106;28;20028;-89
2021/06/10 04:25:32;;;;;;;0.20;0.20;;;;;;;9.10;100.00;93553.38;2114274;28;20011;-89
2021/06/10 04:26:32;;;;;;;0.43;0.35;;;;;;;9.10;100.00;93556.78;2113881;28;20441;-90
2021/06/10 04:27:33;;;;;;;0.30;0.30;;;;;;;9.12;100.00;93557.13;2105306;28;20069;-90
2021/06/10 04:28:34;;;;;;;0.30;0.30;;;;;;;9.13;100.00;93555.22;2105621;28;20028;-90
2021/06/10 04:29:35;;;;;;;0.20;0.20;;;;;;;9.12;100.00;93554.47;2096930;28;20028;-90
2021/06/10 04:30:35;;;;;;;0.30;0.22;;;;;;;9.17;100.00;93558.63;2095904;28;20048;-92
2021/06/10 04:31:37;;;;;;;0.20;0.20;;;;;;;9.20;100.00;93560.50;2097397;28;20056;-91
2021/06/10 04:32:38;;;;;;;0.30;0.30;;;;;;;9.20;100.00;93549.81;2097041;28;20031;-92
2021/06/10 04:33:39;;;;;;;0.20;0.20;;;;;;;9.23;100.00;93551.72;2094416;28;20024;-91
2021/06/10 04:34:39;;;;;;;0.20;0.20;;;;;;;9.25;100.00;93547.47;2105643;28;20035;-92
2021/06/10 04:35:40;;;;;;;0.30;0.22;;;;;;;9.28;100.00;93551.28;2105034;28;20031;-91
2021/06/10 04:36:41;;;;;;;0.30;0.30;;;;;;;9.28;100.00;93557.38;2104768;28;20111;-90
2021/06/10 04:37:42;;;;;;;1.02;0.30;;;;;;;9.33;100.00;93553.50;2114063;28;20038;-90
2021/06/10 04:38:43;;;;;;;0.30;0.30;;;;;;;9.37;100.00;93550.81;2100234;28;20125;-89
2021/06/10 04:39:44;;;;;;;0.20;0.20;;;;;;;9.39;100.00;93551.16;2092530;28;20021;-90
2021/06/10 04:40:44;;;;;;;0.47;0.47;;;;;;;9.39;100.00;93557.25;2097370;28;20428;-90
2021/06/10 04:41:46;;;;;;;0.30;0.30;;;;;;;9.43;100.00;93543.88;2094731;28;20107;-91
2021/06/10 04:42:46;;;;;;;0.30;0.30;;;;;;;9.46;100.00;93545.75;2104331;28;20025;-90
2021/06/10 04:43:47;;;;;;;0.22;0.20;;;;;;;9.50;100.00;93546.47;2096829;28;20075;-90
2021/06/10 04:44:48;;;;;;;0.20;0.20;;;;;;;9.51;100.00;93546.06;2097453;28;20031;-89
2021/06/10 04:45:48;;;;;;;0.20;0.20;;;;;;;9.56;100.00;93550.22;2097516;28;20023;-92
2021/06/10 04:46:49;;;;;;;0.30;0.30;;;;;;;9.62;100.00;93553.22;2097664;28;20044;-90
2021/06/10 04:47:50;;;;;;;1.35;0.40;;;;;;;9.67;100.00;93550.13;2097237;28;20036;-90
2021/06/10 04:48:50;;;;;;;0.20;0.20;;;;;;;9.73;100.00;93548.50;2089035;28;20048;-90
2021/06/10 04:49:51;;;;;;;0.30;0.30;;;;;;;9.76;100.00;93555.72;2088985;28;20120;-90
2021/06/10 04:50:53;;;;;;;0.20;0.20;;;;;;;9.81;100.00;93552.63;2088954;28;20482;-91
2021/06/10 04:51:53;;;;;;;0.30;0.30;;;;;;;9.83;100.00;93558.31;2097569;28;20028;-89
2021/06/10 04:52:55;;;;;;;0.30;0.30;;;;;;;9.86;100.00;93554.09;2106004;28;20102;-90